createdAt,value
2023-02-27T00:00:21.554Z,94.40
2023-02-27T00:02:52.000Z,94.40
2023-02-27T00:05:22.413Z,94.70
2023-02-27T00:07:52.509Z,94.60
2023-02-27T00:10:21.024Z,94.70
2023-02-27T00:12:48.957Z,94.70
2023-02-27T00:15:19.358Z,94.80
2023-02-27T00:17:47.397Z,94.70
2023-02-27T00:20:17.609Z,94.60
2023-02-27T00:22:46.398Z,94.60
2023-02-27T00:25:16.545Z,94.70
2023-02-27T00:27:44.549Z,94.80
2023-02-27T00:30:15.447Z,94.70
2023-02-27T00:32:43.821Z,94.60
2023-02-27T00:35:13.257Z,94.50
2023-02-27T00:37:41.456Z,94.50
2023-02-27T00:40:11.268Z,94.70
2023-02-27T00:42:40.560Z,94.70
2023-02-27T00:45:09.700Z,94.70
2023-02-27T00:47:38.598Z,94.70
2023-02-27T00:50:07.547Z,94.70
2023-02-27T00:52:35.469Z,95.30
2023-02-27T00:55:03.424Z,94.60
2023-02-27T00:57:31.674Z,94.80
2023-02-27T01:00:01.009Z,94.70
2023-02-27T01:02:29.572Z,94.80
2023-02-27T01:04:57.491Z,95.00
2023-02-27T01:07:25.434Z,94.90
2023-02-27T01:09:53.320Z,94.80
2023-02-27T01:12:21.443Z,95.00
2023-02-27T01:14:49.379Z,95.00
2023-02-27T01:17:18.660Z,95.10
2023-02-27T01:19:46.771Z,94.90
2023-02-27T01:22:14.685Z,94.80
2023-02-27T01:24:42.901Z,94.60
2023-02-27T01:27:11.090Z,94.80
2023-02-27T01:29:39.429Z,94.70
2023-02-27T01:32:07.443Z,94.70
2023-02-27T01:34:36.942Z,94.70
2023-02-27T01:37:04.850Z,94.60
2023-02-27T01:39:36.595Z,94.70
2023-02-27T01:42:04.909Z,94.80
2023-02-27T01:44:52.940Z,94.80
2023-02-27T01:47:20.982Z,94.80
2023-02-27T01:49:50.242Z,94.70
2023-02-27T01:52:18.157Z,94.70
2023-02-27T01:54:46.158Z,94.60
2023-02-27T01:57:15.523Z,95.00
2023-02-27T01:59:44.305Z,94.50
2023-02-27T02:02:17.886Z,94.50
2023-02-27T02:04:46.338Z,94.40
2023-02-27T02:07:18.499Z,94.40
2023-02-27T02:09:50.686Z,94.30
2023-02-27T02:12:20.932Z,94.40
2023-02-27T02:14:48.936Z,94.30
2023-02-27T02:17:24.381Z,94.40
2023-02-27T02:20:28.608Z,94.30
2023-02-27T02:23:38.449Z,94.30
2023-02-27T02:26:33.253Z,94.40
2023-02-27T02:29:39.028Z,94.40
2023-02-27T02:32:58.459Z,94.40
2023-02-27T02:36:26.713Z,94.60
2023-02-27T02:39:22.310Z,94.40
2023-02-27T02:42:03.052Z,94.40
2023-02-27T02:44:44.401Z,94.30
2023-02-27T02:47:22.652Z,94.30
2023-02-27T02:49:57.902Z,94.40
2023-02-27T02:52:34.086Z,94.40
2023-02-27T02:55:11.328Z,94.20
2023-02-27T02:57:44.801Z,94.50
2023-02-27T03:00:17.343Z,94.30
2023-02-27T03:02:49.054Z,94.60
2023-02-27T03:05:22.121Z,94.40
2023-02-27T03:07:55.287Z,94.60
2023-02-27T03:10:29.430Z,94.80
2023-02-27T03:13:02.172Z,94.60
2023-02-27T03:15:34.841Z,94.70
2023-02-27T03:18:08.101Z,94.90
2023-02-27T03:20:39.934Z,94.90
2023-02-27T03:23:14.158Z,95.30
2023-02-27T03:25:46.349Z,95.10
2023-02-27T03:28:19.069Z,94.80
2023-02-27T03:30:53.360Z,94.80
2023-02-27T03:33:26.237Z,94.90
2023-02-27T03:36:00.846Z,94.90
2023-02-27T03:38:37.828Z,95.20
2023-02-27T03:41:14.435Z,95.10
2023-02-27T03:43:52.078Z,95.10
2023-02-27T03:46:23.526Z,95.20
2023-02-27T03:48:51.713Z,95.00
2023-02-27T03:51:21.801Z,94.90
2023-02-27T03:53:53.017Z,95.10
2023-02-27T03:56:26.660Z,95.10
2023-02-27T03:58:55.232Z,95.00
2023-02-27T04:01:23.607Z,95.00
2023-02-27T04:03:57.929Z,95.20
2023-02-27T04:06:43.670Z,95.20
2023-02-27T04:09:22.538Z,95.10
2023-02-27T04:12:05.559Z,94.90
2023-02-27T04:14:46.270Z,94.90
2023-02-27T04:17:21.583Z,95.00
2023-02-27T04:20:16.877Z,94.60
2023-02-27T04:22:48.648Z,94.40
2023-02-27T04:25:48.772Z,94.40
2023-02-27T04:28:24.896Z,94.20
2023-02-27T04:31:04.691Z,94.10
2023-02-27T04:33:43.135Z,93.90
2023-02-27T04:36:17.501Z,94.00
2023-02-27T04:38:51.930Z,93.80
2023-02-27T04:41:23.343Z,93.80
2023-02-27T04:43:54.724Z,93.90
2023-02-27T04:46:27.447Z,93.80
2023-02-27T04:49:00.598Z,93.60
2023-02-27T04:51:33.982Z,93.70
2023-02-27T04:54:05.476Z,93.60
2023-02-27T04:56:37.275Z,93.60
2023-02-27T04:59:11.350Z,93.50
2023-02-27T05:01:42.647Z,93.60
2023-02-27T05:04:14.970Z,93.30
2023-02-27T05:06:45.395Z,93.40
2023-02-27T05:09:19.608Z,93.70
2023-02-27T05:11:54.409Z,93.80
2023-02-27T05:14:29.003Z,93.70
2023-02-27T05:17:05.125Z,93.90
2023-02-27T05:19:34.786Z,93.90
2023-02-27T05:22:14.084Z,93.90
2023-02-27T05:24:51.037Z,94.10
2023-02-27T05:27:26.628Z,94.00
2023-02-27T05:30:00.788Z,94.10
2023-02-27T05:32:37.741Z,94.00
2023-02-27T05:35:14.325Z,93.80
2023-02-27T05:37:47.067Z,93.70
2023-02-27T05:40:20.571Z,93.60
2023-02-27T05:42:55.515Z,93.40
2023-02-27T05:45:29.988Z,93.30
2023-02-27T05:48:02.962Z,93.20
2023-02-27T05:50:34.899Z,93.20
2023-02-27T05:53:06.164Z,93.20
2023-02-27T05:55:38.457Z,92.90
2023-02-27T05:58:12.445Z,92.70
2023-02-27T06:00:45.361Z,92.70
2023-02-27T06:03:13.981Z,92.90
2023-02-27T06:05:43.764Z,93.00
2023-02-27T06:08:12.531Z,92.80
2023-02-27T06:10:40.501Z,92.70
2023-02-27T06:13:08.421Z,92.50
2023-02-27T06:15:36.313Z,92.50
2023-02-27T06:18:05.709Z,92.70
2023-02-27T06:20:33.605Z,92.60
2023-02-27T06:23:01.857Z,92.50
2023-02-27T06:25:29.831Z,92.40
2023-02-27T06:27:57.737Z,92.10
2023-02-27T06:30:25.696Z,92.10
2023-02-27T06:32:53.964Z,92.10
2023-02-27T06:35:23.570Z,91.70
2023-02-27T06:37:51.672Z,91.70
2023-02-27T06:40:19.689Z,91.40
2023-02-27T06:42:47.658Z,91.30
2023-02-27T06:45:17.218Z,91.00
2023-02-27T06:47:45.451Z,91.00
2023-02-27T06:50:14.742Z,91.10
2023-02-27T06:52:44.104Z,90.80
2023-02-27T06:55:12.838Z,90.50
2023-02-27T06:57:41.211Z,90.40
2023-02-27T07:00:11.755Z,90.30
2023-02-27T07:02:39.723Z,90.30
2023-02-27T07:05:08.745Z,90.40
2023-02-27T07:07:38.633Z,90.00
2023-02-27T07:10:11.570Z,90.30
2023-02-27T07:12:39.615Z,90.10
2023-02-27T07:15:08.662Z,90.40
2023-02-27T07:17:36.776Z,90.10
2023-02-27T07:20:05.749Z,90.00
2023-02-27T07:22:33.748Z,89.70
2023-02-27T07:25:01.653Z,89.00
2023-02-27T07:27:31.371Z,88.80
2023-02-27T07:29:59.392Z,89.40
2023-02-27T07:32:27.480Z,89.40
2023-02-27T07:34:55.413Z,87.90
2023-02-27T07:37:23.325Z,88.60
2023-02-27T07:39:51.260Z,88.90
2023-02-27T07:42:19.143Z,88.70
2023-02-27T07:44:48.430Z,88.10
2023-02-27T07:47:17.596Z,88.80
2023-02-27T07:49:45.490Z,88.70
2023-02-27T07:52:17.008Z,89.90
2023-02-27T07:54:45.686Z,90.40
2023-02-27T07:57:14.604Z,90.50
2023-02-27T07:59:42.576Z,90.60
2023-02-27T08:02:13.210Z,90.50
2023-02-27T08:04:41.272Z,91.00
2023-02-27T08:07:09.208Z,91.10
2023-02-27T08:09:37.472Z,91.00
2023-02-27T08:12:06.157Z,91.20
2023-02-27T08:14:34.102Z,91.40
2023-02-27T08:17:02.076Z,91.00
2023-02-27T08:19:31.442Z,90.90
2023-02-27T08:21:59.410Z,90.80
2023-02-27T08:24:27.603Z,90.80
2023-02-27T08:26:55.833Z,91.40
2023-02-27T08:29:23.888Z,90.30
2023-02-27T08:31:51.939Z,87.10
2023-02-27T08:34:20.193Z,86.40
2023-02-27T08:36:49.435Z,86.10
2023-02-27T08:39:17.743Z,86.80
2023-02-27T08:41:45.956Z,87.50
2023-02-27T08:44:14.472Z,86.40
2023-02-27T08:46:42.652Z,86.00
2023-02-27T08:49:10.768Z,86.30
2023-02-27T08:51:38.700Z,85.60
2023-02-27T08:54:07.997Z,85.70
2023-02-27T08:56:35.927Z,84.80
2023-02-27T08:59:04.325Z,84.70
2023-02-27T09:01:34.559Z,86.00
2023-02-27T09:04:03.541Z,84.90
2023-02-27T09:06:32.393Z,84.70
2023-02-27T09:09:01.160Z,85.70
2023-02-27T09:11:30.898Z,85.10
2023-02-27T09:13:59.075Z,84.60
2023-02-27T09:16:27.724Z,84.30
2023-02-27T09:18:56.092Z,84.60
2023-02-27T09:21:24.785Z,83.60
2023-02-27T09:23:53.271Z,83.40
2023-02-27T09:26:26.631Z,84.60
2023-02-27T09:29:05.181Z,84.20
2023-02-27T09:31:33.778Z,85.90
2023-02-27T09:34:02.559Z,85.10
2023-02-27T09:36:30.505Z,84.00
2023-02-27T09:38:59.887Z,85.30
2023-02-27T09:41:55.782Z,84.40
2023-02-27T09:44:45.132Z,83.10
2023-02-27T09:47:18.576Z,84.20
2023-02-27T09:49:55.222Z,85.00
2023-02-27T09:52:23.605Z,83.60
2023-02-27T09:54:52.021Z,82.50
2023-02-27T09:57:28.824Z,82.50
2023-02-27T10:00:04.308Z,83.30
2023-02-27T10:02:41.583Z,83.10
2023-02-27T10:05:17.977Z,83.60
2023-02-27T10:07:51.406Z,83.10
2023-02-27T10:10:30.109Z,81.20
2023-02-27T10:13:25.177Z,81.50
2023-02-27T10:15:55.703Z,81.20
2023-02-27T10:18:30.775Z,79.40
2023-02-27T10:21:01.578Z,80.10
2023-02-27T10:23:37.241Z,79.30
2023-02-27T10:26:05.965Z,79.60
2023-02-27T10:28:34.784Z,79.40
2023-02-27T10:31:12.826Z,78.90
2023-02-27T10:33:44.147Z,79.50
2023-02-27T10:36:20.587Z,79.30
2023-02-27T10:38:57.847Z,78.80
2023-02-27T10:41:27.446Z,79.10
2023-02-27T10:43:59.445Z,80.00
2023-02-27T10:46:31.410Z,78.70
2023-02-27T10:49:00.484Z,79.70
2023-02-27T10:51:31.203Z,81.30
2023-02-27T10:54:23.562Z,80.90
2023-02-27T10:56:55.529Z,79.70
2023-02-27T10:59:26.990Z,79.20
2023-02-27T11:01:58.275Z,79.20
2023-02-27T11:04:33.243Z,78.60
2023-02-27T11:07:04.620Z,80.30
2023-02-27T11:09:34.090Z,79.20
2023-02-27T11:12:14.322Z,78.60
2023-02-27T11:14:53.526Z,78.00
2023-02-27T11:17:26.260Z,79.10
2023-02-27T11:19:54.202Z,78.90
2023-02-27T11:22:24.779Z,78.10
2023-02-27T11:24:54.555Z,79.20
2023-02-27T11:27:26.551Z,79.80
2023-02-27T11:29:59.778Z,81.00
2023-02-27T11:32:38.049Z,81.60
2023-02-27T11:35:16.118Z,79.30
2023-02-27T11:37:44.476Z,79.10
2023-02-27T11:40:19.378Z,79.30
2023-02-27T11:42:50.515Z,80.00
2023-02-27T11:46:17.039Z,79.10
2023-02-27T11:48:24.465Z,78.30
2023-02-27T11:51:26.107Z,77.30
2023-02-27T11:54:07.118Z,79.10
2023-02-27T11:56:39.156Z,78.20
2023-02-27T11:59:18.588Z,78.60
2023-02-27T12:01:51.210Z,79.40
2023-02-27T12:04:25.676Z,79.60
2023-02-27T12:06:58.455Z,77.50
2023-02-27T12:09:38.125Z,78.40
2023-02-27T12:12:14.445Z,78.80
2023-02-27T12:14:48.410Z,78.80
2023-02-27T12:17:23.393Z,79.30
2023-02-27T12:20:16.759Z,79.80
2023-02-27T12:22:47.018Z,79.40
2023-02-27T12:25:25.321Z,78.20
2023-02-27T12:27:58.291Z,79.10
2023-02-27T12:30:28.984Z,78.90
2023-02-27T12:33:04.526Z,78.40
2023-02-27T12:35:34.319Z,77.40
2023-02-27T12:38:03.444Z,78.00
2023-02-27T12:40:39.376Z,79.70
2023-02-27T12:43:22.494Z,79.60
2023-02-27T12:46:18.481Z,78.20
2023-02-27T12:48:57.436Z,78.90
2023-02-27T12:51:41.303Z,78.00
2023-02-27T12:54:20.118Z,80.30
2023-02-27T12:57:00.565Z,80.40
2023-02-27T12:59:49.500Z,80.60
2023-02-27T13:02:37.104Z,80.30
2023-02-27T13:05:16.696Z,79.60
2023-02-27T13:07:53.017Z,80.50
2023-02-27T13:10:26.005Z,79.60
2023-02-27T13:12:58.814Z,79.40
2023-02-27T13:15:32.116Z,79.80
2023-02-27T13:18:06.448Z,79.30
2023-02-27T13:20:40.015Z,80.90
2023-02-27T13:23:19.735Z,81.90
2023-02-27T13:25:52.252Z,79.90
2023-02-27T13:28:22.860Z,78.80
2023-02-27T13:31:01.213Z,79.00
2023-02-27T13:33:36.612Z,79.50
2023-02-27T13:36:11.310Z,79.90
2023-02-27T13:38:46.422Z,80.70
2023-02-27T13:41:38.095Z,80.40
2023-02-27T13:44:49.143Z,79.30
2023-02-27T13:47:48.608Z,81.30
2023-02-27T13:50:50.192Z,81.70
2023-02-27T13:53:21.165Z,80.20
2023-02-27T13:55:52.009Z,79.50
2023-02-27T13:58:24.637Z,81.60
2023-02-27T14:01:01.853Z,81.60
2023-02-27T14:03:32.234Z,82.90
2023-02-27T14:06:04.755Z,81.00
2023-02-27T14:08:39.396Z,81.00
2023-02-27T14:11:20.107Z,81.10
2023-02-27T14:14:05.472Z,81.20
2023-02-27T14:16:56.314Z,80.70
2023-02-27T14:19:56.761Z,81.00
2023-02-27T14:22:41.343Z,81.40
2023-02-27T14:25:21.922Z,80.40
2023-02-27T14:27:56.869Z,81.30
2023-02-27T14:30:30.958Z,81.90
2023-02-27T14:33:02.448Z,82.40
2023-02-27T14:35:31.563Z,82.30
2023-02-27T14:38:04.767Z,81.90
2023-02-27T14:40:40.020Z,81.30
2023-02-27T14:43:20.116Z,81.20
2023-02-27T14:45:49.188Z,82.20
2023-02-27T14:48:26.980Z,82.10
2023-02-27T14:50:57.907Z,82.30
2023-02-27T14:53:27.896Z,83.40
2023-02-27T14:55:57.363Z,83.80
2023-02-27T14:58:28.178Z,83.80
2023-02-27T15:01:04.329Z,83.80
2023-02-27T15:03:38.710Z,83.70
2023-02-27T15:06:15.350Z,83.40
2023-02-27T15:08:46.527Z,83.50
2023-02-27T15:11:17.362Z,83.10
2023-02-27T15:13:47.844Z,85.50
2023-02-27T15:16:38.804Z,86.60
2023-02-27T15:19:15.548Z,87.00
2023-02-27T15:21:46.239Z,88.40
2023-02-27T15:24:27.708Z,88.00
2023-02-27T15:26:59.664Z,88.70
2023-02-27T15:29:34.706Z,88.90
2023-02-27T15:32:04.353Z,89.10
2023-02-27T15:34:33.285Z,89.00
2023-02-27T15:37:02.005Z,88.70
2023-02-27T15:39:33.684Z,88.80
2023-02-27T15:42:04.637Z,88.20
2023-02-27T15:44:39.685Z,88.30
2023-02-27T15:47:09.560Z,88.10
2023-02-27T15:49:38.211Z,88.40
2023-02-27T15:52:15.956Z,88.00
2023-02-27T15:54:49.644Z,85.70
2023-02-27T15:57:17.753Z,85.30
2023-02-27T15:59:47.226Z,85.40
2023-02-27T16:02:19.902Z,83.80
2023-02-27T16:04:48.683Z,83.50
2023-02-27T16:07:20.310Z,84.40
2023-02-27T16:09:51.596Z,83.60
2023-02-27T16:12:29.564Z,83.50
2023-02-27T16:15:21.515Z,83.40
2023-02-27T16:18:23.826Z,84.00
2023-02-27T16:20:55.635Z,83.60
2023-02-27T16:23:25.308Z,84.30
2023-02-27T16:26:19.039Z,83.50
2023-02-27T16:28:53.434Z,82.50
2023-02-27T16:31:30.827Z,83.50
2023-02-27T16:34:01.524Z,84.30
2023-02-27T16:36:32.232Z,84.60
2023-02-27T16:39:00.420Z,85.20
2023-02-27T16:41:28.851Z,86.40
2023-02-27T16:43:56.856Z,87.00
2023-02-27T16:46:25.230Z,87.80
2023-02-27T16:48:55.043Z,88.00
2023-02-27T16:51:24.882Z,87.70
2023-02-27T16:53:55.641Z,88.10
2023-02-27T16:56:37.397Z,88.30
2023-02-27T16:59:06.545Z,88.10
2023-02-27T17:01:34.849Z,88.00
2023-02-27T17:04:05.235Z,88.10
2023-02-27T17:06:36.595Z,88.00
2023-02-27T17:09:05.912Z,88.70
2023-02-27T17:11:33.848Z,87.70
2023-02-27T17:14:02.990Z,87.30
2023-02-27T17:16:31.190Z,87.00
2023-02-27T17:18:59.236Z,86.80
2023-02-27T17:21:27.526Z,86.80
2023-02-27T17:23:55.516Z,86.60
2023-02-27T17:26:25.100Z,86.50
2023-02-27T17:28:53.353Z,87.30
2023-02-27T17:31:23.048Z,87.40
2023-02-27T17:33:51.730Z,87.40
2023-02-27T17:36:19.691Z,88.10
2023-02-27T17:38:47.939Z,87.60
2023-02-27T17:41:16.779Z,87.20
2023-02-27T17:43:51.097Z,87.40
2023-02-27T17:46:19.118Z,88.10
2023-02-27T17:48:47.015Z,88.10
2023-02-27T17:51:16.612Z,88.00
2023-02-27T17:53:44.926Z,87.70
2023-02-27T17:56:14.479Z,87.40
2023-02-27T17:58:45.353Z,87.60
2023-02-27T18:01:20.155Z,88.10
2023-02-27T18:03:49.306Z,88.30
2023-02-27T18:06:17.756Z,88.10
2023-02-27T18:08:45.718Z,88.30
2023-02-27T18:11:15.553Z,88.60
2023-02-27T18:13:44.491Z,88.00
2023-02-27T18:16:14.626Z,88.70
2023-02-27T18:18:44.072Z,88.90
2023-02-27T18:21:14.625Z,89.90
2023-02-27T18:23:43.978Z,89.30
2023-02-27T18:26:32.763Z,89.70
2023-02-27T18:29:02.928Z,89.40
2023-02-27T18:31:35.488Z,89.60
2023-02-27T18:34:04.053Z,89.90
2023-02-27T18:36:32.476Z,89.70
2023-02-27T18:39:01.479Z,90.10
2023-02-27T18:41:30.536Z,89.90
2023-02-27T18:43:59.465Z,89.70
2023-02-27T18:46:28.733Z,89.80
2023-02-27T18:48:58.477Z,89.60
2023-02-27T18:51:27.397Z,89.70
2023-02-27T18:53:55.521Z,89.90
2023-02-27T18:56:26.266Z,89.80
2023-02-27T18:58:55.035Z,89.60
2023-02-27T19:01:25.569Z,89.50
2023-02-27T19:03:56.237Z,89.40
2023-02-27T19:06:26.049Z,89.10
2023-02-27T19:08:54.349Z,89.00
2023-02-27T19:11:24.068Z,89.70
2023-02-27T19:13:52.569Z,89.00
2023-02-27T19:16:20.758Z,89.20
2023-02-27T19:18:48.706Z,89.10
2023-02-27T19:21:16.712Z,89.00
2023-02-27T19:23:46.213Z,89.10
2023-02-27T19:26:14.293Z,89.20
2023-02-27T19:28:42.470Z,88.80
2023-02-27T19:31:11.854Z,88.30
2023-02-27T19:33:40.180Z,88.40
2023-02-27T19:36:10.108Z,88.50
2023-02-27T19:38:38.097Z,88.60
2023-02-27T19:41:10.598Z,88.00
2023-02-27T19:43:39.294Z,88.60
2023-02-27T19:46:07.938Z,88.80
2023-02-27T19:48:36.520Z,88.80
2023-02-27T19:51:05.273Z,88.60
2023-02-27T19:53:35.659Z,88.90
2023-02-27T19:56:04.818Z,89.20
2023-02-27T19:58:35.839Z,88.80
2023-02-27T20:01:04.746Z,89.50
2023-02-27T20:03:33.333Z,89.50
2023-02-27T20:06:05.768Z,89.10
2023-02-27T20:08:34.391Z,89.00
2023-02-27T20:11:04.680Z,88.80
2023-02-27T20:13:33.930Z,89.20
2023-02-27T20:16:03.565Z,89.00
2023-02-27T20:18:33.999Z,89.10
2023-02-27T20:21:03.717Z,89.00
2023-02-27T20:23:32.582Z,88.60
2023-02-27T20:26:00.845Z,89.00
2023-02-27T20:28:29.304Z,88.50
2023-02-27T20:30:58.679Z,88.20
2023-02-27T20:33:26.650Z,88.40
2023-02-27T20:35:54.630Z,88.20
2023-02-27T20:38:22.858Z,88.40
2023-02-27T20:40:51.188Z,88.00
2023-02-27T20:43:19.108Z,87.60
2023-02-27T20:45:47.258Z,87.70
2023-02-27T20:48:16.793Z,87.60
2023-02-27T20:50:44.703Z,87.90
2023-02-27T20:53:12.614Z,88.50
2023-02-27T20:55:48.130Z,87.90
2023-02-27T20:58:16.647Z,88.30
2023-02-27T21:00:44.542Z,88.80
2023-02-27T21:03:12.490Z,88.60
2023-02-27T21:05:48.625Z,89.00
2023-02-27T21:08:16.678Z,89.20
2023-02-27T21:10:46.442Z,90.00
2023-02-27T21:13:14.342Z,89.90
2023-02-27T21:15:42.376Z,89.20
2023-02-27T21:18:10.429Z,89.20
2023-02-27T21:20:41.056Z,88.80
2023-02-27T21:23:10.908Z,88.90
2023-02-27T21:25:42.385Z,87.80
2023-02-27T21:28:10.736Z,87.80
2023-02-27T21:30:38.901Z,88.20
2023-02-27T21:33:07.018Z,88.10
2023-02-27T21:35:34.963Z,87.90
2023-02-27T21:38:03.497Z,87.60
2023-02-27T21:40:32.800Z,88.00
2023-02-27T21:43:00.985Z,87.80
2023-02-27T21:45:28.999Z,87.90
2023-02-27T21:47:57.270Z,87.80
2023-02-27T21:50:25.191Z,87.90
2023-02-27T21:52:53.319Z,87.40
2023-02-27T21:55:21.196Z,87.90
2023-02-27T21:57:50.479Z,87.80
2023-02-27T22:00:19.546Z,87.90
2023-02-27T22:02:47.479Z,88.10
2023-02-27T22:05:15.474Z,88.10
2023-02-27T22:07:43.469Z,87.70
2023-02-27T22:10:12.414Z,88.30
2023-02-27T22:12:40.293Z,88.50
2023-02-27T22:15:10.861Z,88.80
2023-02-27T22:17:38.845Z,89.00
2023-02-27T22:20:07.926Z,89.90
2023-02-27T22:22:35.937Z,89.60
2023-02-27T22:25:03.890Z,89.40
2023-02-27T22:27:31.788Z,89.10
2023-02-27T22:29:59.786Z,89.00
2023-02-27T22:32:29.224Z,88.80
2023-02-27T22:34:59.940Z,88.70
2023-02-27T22:37:28.245Z,88.70
2023-02-27T22:39:56.148Z,89.50
2023-02-27T22:42:24.141Z,88.70
2023-02-27T22:44:52.061Z,88.40
2023-02-27T22:47:20.051Z,89.10
2023-02-27T22:49:51.376Z,89.00
2023-02-27T22:52:20.180Z,89.90
2023-02-27T22:54:49.929Z,89.80
2023-02-27T22:57:17.871Z,89.70
2023-02-27T22:59:45.936Z,89.80
2023-02-27T23:02:13.926Z,90.20
2023-02-27T23:04:41.935Z,90.20
2023-02-27T23:07:11.224Z,90.20
2023-02-27T23:09:39.190Z,90.10
2023-02-27T23:12:07.430Z,90.40
2023-02-27T23:14:35.455Z,90.00
2023-02-27T23:17:03.391Z,90.20
2023-02-27T23:19:32.721Z,90.10
2023-02-27T23:22:00.648Z,90.00
2023-02-27T23:24:29.923Z,90.20
2023-02-27T23:26:58.003Z,90.70
2023-02-27T23:29:25.936Z,90.20
2023-02-27T23:31:54.040Z,90.10
2023-02-27T23:34:22.040Z,90.10
2023-02-27T23:36:50.076Z,90.00
2023-02-27T23:39:17.994Z,90.10
2023-02-27T23:41:47.381Z,90.10
2023-02-27T23:44:15.429Z,90.20
2023-02-27T23:46:43.386Z,89.70
2023-02-27T23:49:12.132Z,89.20
2023-02-27T23:51:40.045Z,89.00
2023-02-27T23:54:07.984Z,89.10
2023-02-27T23:56:35.980Z,88.60
2023-02-27T23:59:07.229Z,88.40
